createdAt,value
2019-03-16T00:01:30.939Z,96799.27
2019-03-16T00:04:05.009Z,96797.25
2019-03-16T00:06:36.830Z,96795.14
2019-03-16T00:09:10.248Z,96785.83
2019-03-16T00:11:42.079Z,96789.87
2019-03-16T00:14:14.254Z,96795.33
2019-03-16T00:16:46.025Z,96791.88
2019-03-16T00:19:17.957Z,96790.25
2019-03-16T00:21:49.819Z,96782.73
2019-03-16T00:24:21.621Z,96787.41
2019-03-16T00:26:53.350Z,96781.45
2019-03-16T00:29:25.215Z,96767.20
2019-03-16T00:31:57.113Z,96771.34
2019-03-16T00:34:28.967Z,96767.78
2019-03-16T00:37:04.614Z,96757.16
2019-03-16T00:39:36.562Z,96757.80
2019-03-16T00:42:08.336Z,96753.70
2019-03-16T00:44:40.147Z,96750.38
2019-03-16T00:47:12.019Z,96753.03
2019-03-16T00:49:43.944Z,96749.03
2019-03-16T00:52:15.890Z,96748.73
2019-03-16T00:54:47.768Z,96745.47
2019-03-16T00:57:19.947Z,96745.70
2019-03-16T00:59:51.629Z,96739.55
2019-03-16T01:02:27.383Z,96733.70
2019-03-16T01:04:57.123Z,96741.03
2019-03-16T01:07:28.761Z,96737.19
2019-03-16T01:10:00.477Z,96736.09
2019-03-16T01:12:34.864Z,96734.08
2019-03-16T01:15:06.762Z,96733.02
2019-03-16T01:17:38.606Z,96735.65
2019-03-16T01:20:10.477Z,96744.00
2019-03-16T01:22:44.505Z,96735.48
2019-03-16T01:25:16.145Z,96742.78
2019-03-16T01:27:45.470Z,96738.69
2019-03-16T01:30:17.777Z,96741.77
2019-03-16T01:32:49.653Z,96739.14
2019-03-16T01:35:21.495Z,96744.96
2019-03-16T01:37:53.285Z,96742.56
2019-03-16T01:40:25.106Z,96738.34
2019-03-16T01:42:56.903Z,96741.28
2019-03-16T01:45:28.729Z,96741.16
2019-03-16T01:48:00.485Z,96738.59
2019-03-16T01:50:32.259Z,96737.12
2019-03-16T01:53:04.043Z,96744.98
2019-03-16T01:55:36.024Z,96740.41
2019-03-16T01:58:07.876Z,96744.64
2019-03-16T02:00:39.917Z,96744.73
2019-03-16T02:03:11.768Z,96742.43
2019-03-16T02:05:43.693Z,96748.83
2019-03-16T02:08:16.761Z,96751.39
2019-03-16T02:10:48.682Z,96753.95
2019-03-16T02:13:20.567Z,96753.63
2019-03-16T02:15:52.465Z,96759.65
2019-03-16T02:18:24.321Z,96750.88
2019-03-16T02:20:56.283Z,96748.22
2019-03-16T02:23:30.201Z,96752.06
2019-03-16T02:26:02.209Z,96757.86
2019-03-16T02:28:34.027Z,96762.41
2019-03-16T02:31:06.773Z,96760.03
2019-03-16T02:33:38.815Z,96758.85
2019-03-16T02:36:13.039Z,96766.72
2019-03-16T02:38:44.917Z,96765.34
2019-03-16T02:41:16.725Z,96762.85
2019-03-16T02:43:49.059Z,96763.70
2019-03-16T02:46:20.888Z,96768.38
2019-03-16T02:48:56.032Z,96767.48
2019-03-16T02:51:30.110Z,96767.03
2019-03-16T02:54:03.987Z,96773.53
2019-03-16T02:56:38.181Z,96769.53
2019-03-16T02:59:12.799Z,96773.53
2019-03-16T03:01:44.811Z,96776.73
2019-03-16T03:04:16.730Z,96772.05
2019-03-16T03:06:48.732Z,96771.12
2019-03-16T03:09:21.422Z,96772.11
2019-03-16T03:11:54.796Z,96769.80
2019-03-16T03:14:26.687Z,96775.07
2019-03-16T03:16:58.645Z,96769.06
2019-03-16T03:19:30.497Z,96763.36
2019-03-16T03:22:02.326Z,96761.78
2019-03-16T03:24:34.137Z,96767.67
2019-03-16T03:27:05.919Z,96762.61
2019-03-16T03:29:37.590Z,96765.67
2019-03-16T03:32:09.247Z,96762.55
2019-03-16T03:34:41.134Z,96766.75
2019-03-16T03:37:12.909Z,96762.31
2019-03-16T03:39:44.578Z,96762.36
2019-03-16T03:42:16.624Z,96760.34
2019-03-16T03:44:48.361Z,96765.27
2019-03-16T03:47:20.114Z,96765.36
2019-03-16T03:49:51.739Z,96767.63
2019-03-16T03:52:23.549Z,96765.94
2019-03-16T03:54:55.541Z,96762.97
2019-03-16T03:57:28.558Z,96760.52
2019-03-16T04:00:00.634Z,96750.39
2019-03-16T04:02:32.576Z,96752.53
2019-03-16T04:05:06.715Z,96748.91
2019-03-16T04:07:39.060Z,96750.48
2019-03-16T04:10:11.618Z,96743.11
2019-03-16T04:12:42.208Z,96736.52
2019-03-16T04:15:14.501Z,96736.60
2019-03-16T04:17:46.296Z,96733.75
2019-03-16T04:20:18.232Z,96726.91
2019-03-16T04:22:50.153Z,96731.48
2019-03-16T04:25:21.848Z,96730.95
2019-03-16T04:27:53.532Z,96736.84
2019-03-16T04:30:25.283Z,96728.09
2019-03-16T04:32:57.059Z,96741.18
2019-03-16T04:35:28.897Z,96742.31
2019-03-16T04:38:00.634Z,96739.22
2019-03-16T04:40:32.507Z,96740.11
2019-03-16T04:43:05.421Z,96743.59
2019-03-16T04:45:38.016Z,96744.03
2019-03-16T04:48:11.236Z,96752.06
2019-03-16T04:50:43.169Z,96751.11
2019-03-16T04:53:15.013Z,96745.46
2019-03-16T04:55:46.847Z,96752.14
2019-03-16T04:58:18.635Z,96751.48
2019-03-16T05:00:50.454Z,96741.01
2019-03-16T05:03:22.205Z,96741.50
2019-03-16T05:05:53.973Z,96746.82
2019-03-16T05:08:27.108Z,96747.36
2019-03-16T05:10:58.942Z,96749.81
2019-03-16T05:13:30.734Z,96749.33
2019-03-16T05:16:02.526Z,96753.22
2019-03-16T05:18:34.376Z,96754.49
2019-03-16T05:21:06.171Z,96764.03
2019-03-16T05:23:37.990Z,96769.91
2019-03-16T05:26:11.306Z,96766.27
2019-03-16T05:28:43.081Z,96776.30
2019-03-16T05:31:14.780Z,96776.73
2019-03-16T05:33:46.542Z,96775.20
2019-03-16T05:36:18.846Z,96783.38
2019-03-16T05:38:50.654Z,96785.63
2019-03-16T05:41:22.399Z,96792.43
2019-03-16T05:43:54.175Z,96798.90
2019-03-16T05:46:25.901Z,96795.09
2019-03-16T05:48:58.204Z,96803.16
2019-03-16T05:51:30.007Z,96805.93
2019-03-16T05:54:01.844Z,96805.98
2019-03-16T05:56:33.580Z,96799.22
2019-03-16T05:59:05.405Z,96804.17
2019-03-16T06:01:38.794Z,96796.69
2019-03-16T06:04:11.886Z,96794.27
2019-03-16T06:06:46.906Z,96792.33
2019-03-16T06:09:18.924Z,96798.02
2019-03-16T06:11:51.276Z,96792.39
2019-03-16T06:14:23.085Z,96796.01
2019-03-16T06:16:55.414Z,96801.48
2019-03-16T06:19:27.246Z,96798.50
2019-03-16T06:21:59.138Z,96801.23
2019-03-16T06:24:31.092Z,96796.45
2019-03-16T06:27:03.099Z,96798.50
2019-03-16T06:29:35.185Z,96798.49
2019-03-16T06:32:07.288Z,96791.78
2019-03-16T06:34:39.169Z,96804.34
2019-03-16T06:37:12.025Z,96799.43
2019-03-16T06:39:43.959Z,96797.04
2019-03-16T06:42:16.239Z,96797.53
2019-03-16T06:44:48.234Z,96800.37
2019-03-16T06:47:27.971Z,96806.05
2019-03-16T06:50:02.276Z,96809.61
2019-03-16T06:52:34.307Z,96814.20
2019-03-16T06:55:06.236Z,96817.92
2019-03-16T06:57:37.943Z,96822.53
2019-03-16T07:00:11.085Z,96825.52
2019-03-16T07:02:43.314Z,96831.18
2019-03-16T07:05:19.819Z,96828.52
2019-03-16T07:07:50.309Z,96831.92
2019-03-16T07:10:22.335Z,96834.61
2019-03-16T07:12:54.356Z,96833.09
2019-03-16T07:15:26.188Z,96829.84
2019-03-16T07:17:58.032Z,96830.40
2019-03-16T07:20:30.424Z,96834.68
2019-03-16T07:23:02.763Z,96827.84
2019-03-16T07:25:34.540Z,96821.00
2019-03-16T07:28:06.599Z,96815.84
2019-03-16T07:30:38.246Z,96811.62
2019-03-16T07:33:12.535Z,96812.57
2019-03-16T07:35:44.263Z,96806.88
2019-03-16T07:38:18.679Z,96800.95
2019-03-16T07:40:50.763Z,96799.94
2019-03-16T07:43:28.005Z,96797.83
2019-03-16T07:45:59.976Z,96798.44
2019-03-16T07:48:31.871Z,96793.17
2019-03-16T07:51:04.218Z,96793.41
2019-03-16T07:53:36.376Z,96785.77
2019-03-16T07:56:11.289Z,96780.20
2019-03-16T07:58:43.230Z,96780.55
2019-03-16T08:01:15.021Z,96783.47
2019-03-16T08:03:47.359Z,96776.33
2019-03-16T08:06:19.449Z,96776.33
2019-03-16T08:08:51.416Z,96787.83
2019-03-16T08:11:23.154Z,96785.06
2019-03-16T08:13:54.989Z,96785.06
2019-03-16T08:16:27.486Z,96788.30
2019-03-16T08:18:59.412Z,96790.06
2019-03-16T08:21:52.990Z,96789.67
2019-03-16T08:24:26.124Z,96789.44
2019-03-16T08:26:59.549Z,96786.84
2019-03-16T08:29:31.505Z,96776.87
2019-03-16T08:32:03.442Z,96776.69
2019-03-16T08:34:38.147Z,96780.49
2019-03-16T08:37:10.080Z,96782.61
2019-03-16T08:42:33.925Z,96784.76
2019-03-16T08:45:06.365Z,96785.14
2019-03-16T08:47:38.266Z,96774.68
2019-03-16T08:50:18.365Z,96781.77
2019-03-16T08:52:50.292Z,96770.97
2019-03-16T08:55:22.161Z,96775.80
2019-03-16T08:58:05.626Z,96767.00
2019-03-16T09:00:34.413Z,96770.28
2019-03-16T09:03:07.691Z,96772.98
2019-03-16T09:05:40.127Z,96771.56
2019-03-16T09:08:13.277Z,96766.38
2019-03-16T09:10:45.136Z,96764.92
2019-03-16T09:13:22.488Z,96770.30
2019-03-16T09:15:55.594Z,96779.97
2019-03-16T09:18:27.670Z,96779.80
2019-03-16T09:20:59.685Z,96778.70
2019-03-16T09:23:32.013Z,96772.69
2019-03-16T09:26:04.097Z,96779.01
2019-03-16T09:28:36.213Z,96771.53
2019-03-16T09:31:08.100Z,96780.17
2019-03-16T09:33:42.039Z,96778.24
2019-03-16T09:36:15.598Z,96767.14
2019-03-16T09:38:47.552Z,96761.70
2019-03-16T09:41:24.440Z,96764.54
2019-03-16T09:43:56.900Z,96768.40
2019-03-16T09:46:28.980Z,96753.37
2019-03-16T09:49:01.119Z,96752.12
2019-03-16T09:51:33.329Z,96756.65
2019-03-16T09:54:05.211Z,96761.55
2019-03-16T09:56:37.044Z,96765.98
2019-03-16T09:59:10.639Z,96767.33
2019-03-16T10:01:56.567Z,96766.60
2019-03-16T10:04:30.394Z,96764.00
2019-03-16T10:07:02.299Z,96773.09
2019-03-16T10:09:34.264Z,96759.13
2019-03-16T10:12:06.252Z,96751.80
2019-03-16T10:14:42.750Z,96737.73
2019-03-16T10:17:16.231Z,96733.27
2019-03-16T10:19:48.000Z,96722.84
2019-03-16T10:22:20.540Z,96723.42
2019-03-16T10:24:55.418Z,96723.78
2019-03-16T10:27:27.305Z,96712.71
2019-03-16T10:30:02.935Z,96727.88
2019-03-16T10:32:42.969Z,96712.86
2019-03-16T10:35:15.462Z,96708.72
2019-03-16T10:37:52.121Z,96701.91
2019-03-16T10:40:25.401Z,96690.75
2019-03-16T10:42:57.501Z,96684.56
2019-03-16T10:48:09.598Z,96689.62
2019-03-16T10:50:42.810Z,96687.97
2019-03-16T10:53:18.182Z,96677.40
2019-03-16T10:55:51.105Z,96672.25
2019-03-16T10:58:22.995Z,96661.81
2019-03-16T11:00:54.956Z,96658.38
2019-03-16T11:03:27.058Z,96657.88
2019-03-16T11:06:01.515Z,96650.77
2019-03-16T11:08:36.118Z,96645.13
2019-03-16T11:11:08.302Z,96643.66
2019-03-16T11:13:40.247Z,96636.66
2019-03-16T11:16:13.607Z,96632.22
2019-03-16T11:18:45.606Z,96630.20
2019-03-16T11:21:18.972Z,96618.56
2019-03-16T11:23:51.408Z,96625.17
2019-03-16T11:26:28.671Z,96626.22
2019-03-16T11:29:09.058Z,96629.89
2019-03-16T11:31:34.832Z,96622.34
2019-03-16T11:34:06.810Z,96612.41
2019-03-16T11:36:40.346Z,96613.61
2019-03-16T11:39:12.473Z,96606.72
2019-03-16T11:41:45.471Z,96616.73
2019-03-16T11:44:17.622Z,96611.43
2019-03-16T11:46:49.996Z,96617.37
2019-03-16T11:49:23.640Z,96620.14
2019-03-16T11:51:55.565Z,96611.20
2019-03-16T11:54:27.536Z,96612.41
2019-03-16T11:56:59.988Z,96598.64
2019-03-16T11:59:34.472Z,96610.84
2019-03-16T12:02:06.490Z,96603.86
2019-03-16T12:04:38.543Z,96599.30
2019-03-16T12:07:10.986Z,96597.40
2019-03-16T12:09:42.915Z,96583.89
2019-03-16T12:12:15.080Z,96583.47
2019-03-16T12:14:47.734Z,96583.47
2019-03-16T12:17:19.738Z,96580.13
2019-03-16T12:19:54.314Z,96567.38
2019-03-16T12:22:28.091Z,96557.96
2019-03-16T12:25:01.415Z,96574.80
2019-03-16T12:27:36.365Z,96578.18
2019-03-16T12:30:08.491Z,96577.40
2019-03-16T12:32:42.613Z,96568.54
2019-03-16T12:35:16.310Z,96576.44
2019-03-16T12:37:48.422Z,96569.08
2019-03-16T12:40:22.486Z,96540.52
2019-03-16T12:42:55.985Z,96568.34
2019-03-16T12:45:28.452Z,96561.52
2019-03-16T12:48:00.329Z,96551.75
2019-03-16T12:50:32.316Z,96550.66
2019-03-16T12:53:04.198Z,96551.75
2019-03-16T12:55:36.203Z,96552.18
2019-03-16T12:58:12.966Z,96555.41
2019-03-16T13:00:44.882Z,96549.16
2019-03-16T13:03:19.444Z,96537.27
2019-03-16T13:05:51.223Z,96540.80
2019-03-16T13:08:23.013Z,96536.98
2019-03-16T13:10:54.778Z,96539.69
2019-03-16T13:13:26.747Z,96536.86
2019-03-16T13:15:58.533Z,96537.93
2019-03-16T13:18:30.508Z,96525.55
2019-03-16T13:21:02.289Z,96524.89
2019-03-16T13:23:34.033Z,96523.23
2019-03-16T13:26:05.852Z,96517.25
2019-03-16T13:28:40.705Z,96510.16
2019-03-16T13:31:12.620Z,96522.77
2019-03-16T13:33:44.652Z,96510.01
2019-03-16T13:36:16.302Z,96505.95
2019-03-16T13:38:48.109Z,96504.23
2019-03-16T13:41:21.580Z,96497.14
2019-03-16T13:43:53.255Z,96494.59
2019-03-16T13:46:24.835Z,96500.04
2019-03-16T13:48:56.741Z,96483.75
2019-03-16T13:51:28.512Z,96482.21
2019-03-16T13:54:00.414Z,96477.17
2019-03-16T13:56:32.209Z,96465.45
2019-03-16T13:59:03.968Z,96453.47
2019-03-16T14:01:36.021Z,96445.91
2019-03-16T14:04:10.921Z,96453.30
2019-03-16T14:06:43.892Z,96455.75
2019-03-16T14:09:16.071Z,96457.63
2019-03-16T14:11:47.997Z,96460.62
2019-03-16T14:14:19.775Z,96447.27
2019-03-16T14:16:51.695Z,96459.81
2019-03-16T14:19:23.695Z,96462.71
2019-03-16T14:21:57.679Z,96472.97
2019-03-16T14:24:33.052Z,96478.63
2019-03-16T14:27:08.156Z,96475.50
2019-03-16T14:29:38.933Z,96476.86
2019-03-16T14:32:11.818Z,96479.86
2019-03-16T14:34:44.412Z,96482.25
2019-03-16T14:37:16.245Z,96490.30
2019-03-16T14:39:48.090Z,96476.59
2019-03-16T14:42:22.522Z,96470.06
2019-03-16T14:44:54.551Z,96469.29
2019-03-16T14:47:26.866Z,96472.30
2019-03-16T14:50:01.900Z,96467.17
2019-03-16T14:52:34.356Z,96464.05
2019-03-16T14:55:07.871Z,96455.80
2019-03-16T14:57:41.312Z,96455.80
2019-03-16T15:00:14.465Z,96452.53
2019-03-16T15:02:46.955Z,96451.29
2019-03-16T15:05:19.342Z,96450.21
2019-03-16T15:07:51.116Z,96453.73
2019-03-16T15:10:23.004Z,96442.07
2019-03-16T15:12:54.722Z,96450.73
2019-03-16T15:15:28.907Z,96448.02
2019-03-16T15:18:00.928Z,96451.98
2019-03-16T15:20:32.894Z,96438.45
2019-03-16T15:23:04.857Z,96443.63
2019-03-16T15:25:39.677Z,96440.86
2019-03-16T15:30:50.139Z,96418.14
2019-03-16T15:33:14.729Z,96427.52
2019-03-16T15:35:46.742Z,96424.96
2019-03-16T15:38:20.563Z,96419.70
2019-03-16T15:40:52.425Z,96426.54
2019-03-16T15:43:24.364Z,96425.44
2019-03-16T15:45:57.063Z,96420.29
2019-03-16T15:48:29.410Z,96414.95
2019-03-16T15:51:01.229Z,96416.72
2019-03-16T15:53:33.107Z,96421.47
2019-03-16T15:56:05.145Z,96411.68
2019-03-16T15:58:38.618Z,96401.34
2019-03-16T16:01:09.494Z,96404.61
2019-03-16T16:03:43.411Z,96406.72
2019-03-16T16:06:15.438Z,96391.78
2019-03-16T16:08:47.282Z,96398.42
2019-03-16T16:11:19.177Z,96400.59
2019-03-16T16:13:54.476Z,96400.59
2019-03-16T16:16:26.648Z,96407.39
2019-03-16T16:18:58.594Z,96410.34
2019-03-16T16:21:31.428Z,96422.81
2019-03-16T16:24:04.237Z,96421.04
2019-03-16T16:26:36.133Z,96411.48
2019-03-16T16:29:07.918Z,96406.25
2019-03-16T16:31:40.503Z,96404.32
2019-03-16T16:34:12.427Z,96397.84
2019-03-16T16:36:45.785Z,96408.50
2019-03-16T16:39:19.604Z,96411.09
2019-03-16T16:41:51.635Z,96409.13
2019-03-16T16:44:23.638Z,96414.36
2019-03-16T16:46:56.095Z,96412.30
2019-03-16T16:49:28.035Z,96416.52
2019-03-16T16:51:59.909Z,96401.61
2019-03-16T16:54:31.876Z,96406.17
2019-03-16T16:57:06.077Z,96404.12
2019-03-16T16:59:38.539Z,96404.44
2019-03-16T17:02:10.405Z,96406.41
2019-03-16T17:04:42.443Z,96397.44
2019-03-16T17:07:14.245Z,96396.02
2019-03-16T17:09:46.129Z,96405.77
2019-03-16T17:12:20.581Z,96410.92
2019-03-16T17:14:52.297Z,96418.36
2019-03-16T17:17:35.035Z,96430.88
2019-03-16T17:19:59.570Z,96424.69
2019-03-16T17:22:31.575Z,96447.08
2019-03-16T17:25:05.623Z,96450.02
2019-03-16T17:27:40.588Z,96461.75
2019-03-16T17:30:14.870Z,96465.53
2019-03-16T17:32:48.002Z,96470.95
2019-03-16T17:35:26.713Z,96478.08
2019-03-16T17:37:58.651Z,96486.22
2019-03-16T17:40:30.553Z,96493.58
2019-03-16T17:43:02.486Z,96501.02
2019-03-16T17:45:36.912Z,96509.28
2019-03-16T17:48:08.917Z,96509.39
2019-03-16T17:50:43.193Z,96511.13
2019-03-16T17:53:16.676Z,96518.44
2019-03-16T17:55:48.764Z,96528.31
2019-03-16T17:58:20.729Z,96539.48
2019-03-16T18:00:53.129Z,96547.63
2019-03-16T18:03:25.028Z,96556.36
2019-03-16T18:05:56.864Z,96554.34
2019-03-16T18:08:29.442Z,96566.55
2019-03-16T18:11:01.425Z,96559.59
2019-03-16T18:13:33.545Z,96565.36
2019-03-16T18:16:05.695Z,96563.59
2019-03-16T18:18:37.619Z,96566.46
2019-03-16T18:21:09.555Z,96587.58
2019-03-16T18:23:44.650Z,96587.43
2019-03-16T18:26:17.896Z,96593.92
2019-03-16T18:28:49.950Z,96619.88
2019-03-16T18:31:21.956Z,96620.77
2019-03-16T18:33:53.749Z,96626.94
2019-03-16T18:36:26.150Z,96629.19
2019-03-16T18:39:00.426Z,96639.41
2019-03-16T18:41:34.057Z,96648.96
2019-03-16T18:44:10.701Z,96672.05
2019-03-16T18:46:42.970Z,96697.47
2019-03-16T18:49:16.563Z,96720.94
2019-03-16T18:51:51.525Z,96731.66
2019-03-16T18:54:26.612Z,96731.66
2019-03-16T18:56:58.478Z,96750.78
2019-03-16T18:59:30.847Z,96759.24
2019-03-16T19:02:02.642Z,96783.05
2019-03-16T19:04:37.592Z,96783.05
2019-03-16T19:07:09.333Z,96783.13
2019-03-16T19:09:41.274Z,96793.30
2019-03-16T19:12:13.229Z,96797.51
2019-03-16T19:14:45.174Z,96797.51
2019-03-16T19:17:17.196Z,96800.36
2019-03-16T19:19:48.843Z,96800.36
2019-03-16T19:22:20.622Z,96808.81
2019-03-16T19:24:52.368Z,96808.81
2019-03-16T19:27:24.157Z,96827.86
2019-03-16T19:29:55.012Z,96832.44
2019-03-16T19:32:33.662Z,96840.34
2019-03-16T19:35:01.621Z,96848.19
2019-03-16T19:37:35.516Z,96851.17
2019-03-16T19:40:08.856Z,96854.55
2019-03-16T19:42:40.657Z,96854.20
2019-03-16T19:45:12.899Z,96853.29
2019-03-16T19:47:47.062Z,96853.29
2019-03-16T19:50:20.789Z,96865.61
2019-03-16T19:52:54.868Z,96867.96
2019-03-16T19:55:30.097Z,96867.96
2019-03-16T19:58:04.752Z,96864.89
2019-03-16T20:00:36.502Z,96855.83
2019-03-16T20:03:08.431Z,96866.71
2019-03-16T20:05:40.180Z,96869.97
2019-03-16T20:08:12.036Z,96866.31
2019-03-16T20:10:43.762Z,96864.55
2019-03-16T20:13:15.548Z,96873.22
2019-03-16T20:15:47.267Z,96883.29
2019-03-16T20:18:19.083Z,96894.65
2019-03-16T20:20:50.847Z,96899.47
2019-03-16T20:23:22.744Z,96900.77
2019-03-16T20:25:54.602Z,96909.17
2019-03-16T20:28:26.461Z,96914.32
2019-03-16T20:31:00.461Z,96909.46
2019-03-16T20:33:32.355Z,96927.75
2019-03-16T20:36:04.211Z,96920.91
2019-03-16T20:38:36.625Z,96910.58
2019-03-16T20:41:08.489Z,96915.74
2019-03-16T20:43:40.469Z,96908.13
2019-03-16T20:46:12.305Z,96922.20
2019-03-16T20:48:44.149Z,96914.32
2019-03-16T20:51:16.033Z,96915.74
2019-03-16T20:53:49.009Z,96923.23
2019-03-16T20:56:20.970Z,96928.83
2019-03-16T20:58:52.947Z,96929.02
2019-03-16T21:01:27.121Z,96940.12
2019-03-16T21:03:59.384Z,96943.33
2019-03-16T21:06:31.165Z,96957.77
2019-03-16T21:11:32.659Z,96966.45
2019-03-16T21:14:04.733Z,96970.89
2019-03-16T21:16:36.562Z,96989.40
2019-03-16T21:19:10.916Z,96994.10
2019-03-16T21:21:41.706Z,96995.79
2019-03-16T21:24:13.560Z,97008.37
2019-03-16T21:26:52.287Z,97007.16
2019-03-16T21:29:18.927Z,97015.67
2019-03-16T21:31:50.834Z,97012.23
2019-03-16T21:34:22.825Z,97023.69
2019-03-16T21:36:54.714Z,97032.45
2019-03-16T21:39:26.534Z,97027.45
2019-03-16T21:42:01.132Z,97029.07
2019-03-16T21:44:32.950Z,97029.44
2019-03-16T21:47:06.544Z,97037.20
2019-03-16T21:49:38.240Z,97035.81
2019-03-16T21:52:12.551Z,97037.48
2019-03-16T21:54:44.353Z,97044.55
2019-03-16T21:57:16.171Z,97043.91
2019-03-16T21:59:48.216Z,97036.50
2019-03-16T22:02:20.241Z,97035.97
2019-03-16T22:04:52.072Z,97037.05
2019-03-16T22:07:25.076Z,97037.30
2019-03-16T22:09:56.919Z,97049.78
2019-03-16T22:12:28.969Z,97044.88
2019-03-16T22:15:00.784Z,97055.73
2019-03-16T22:17:36.721Z,97063.23
2019-03-16T22:20:09.835Z,97066.23
2019-03-16T22:22:42.841Z,97071.31
2019-03-16T22:25:15.615Z,97074.17
2019-03-16T22:27:48.021Z,97071.08
2019-03-16T22:30:19.894Z,97081.74
2019-03-16T22:32:52.545Z,97085.77
2019-03-16T22:35:24.268Z,97089.73
2019-03-16T22:37:56.028Z,97088.98
2019-03-16T22:40:29.430Z,97085.47
2019-03-16T22:43:01.308Z,97095.95
2019-03-16T22:45:33.784Z,97097.52
2019-03-16T22:48:05.620Z,97099.55
2019-03-16T22:50:37.372Z,97095.59
2019-03-16T22:53:09.190Z,97098.62
2019-03-16T22:55:40.901Z,97089.55
2019-03-16T22:58:12.657Z,97098.81
2019-03-16T23:00:48.475Z,97103.88
2019-03-16T23:03:20.319Z,97103.88
2019-03-16T23:05:52.174Z,97116.44
2019-03-16T23:08:24.164Z,97113.77
2019-03-16T23:10:55.864Z,97122.41
2019-03-16T23:13:27.577Z,97128.08
2019-03-16T23:15:59.582Z,97132.95
2019-03-16T23:18:31.437Z,97136.42
2019-03-16T23:21:03.231Z,97129.88
2019-03-16T23:23:34.966Z,97135.92
2019-03-16T23:26:06.729Z,97143.47
2019-03-16T23:28:38.491Z,97145.21
2019-03-16T23:31:12.385Z,97159.61
2019-03-16T23:33:43.954Z,97161.16
2019-03-16T23:36:15.863Z,97170.66
2019-03-16T23:38:49.130Z,97164.75
2019-03-16T23:41:21.817Z,97165.14
2019-03-16T23:43:53.720Z,97169.73
2019-03-16T23:46:25.514Z,97180.75
2019-03-16T23:48:57.354Z,97179.95
2019-03-16T23:51:29.287Z,97170.39
2019-03-16T23:54:01.155Z,97171.95
2019-03-16T23:56:32.886Z,97167.53
2019-03-16T23:59:04.718Z,97168.92
